Wind From: 11-12-2017 10:04 Until: 12-12-2017 06:00 warning for: Wind Level: Orange info button

Power and phone distribution networks may be disrupted for relatively long periods., Roofs and chimneys can be damaged. , Tree branches may break. , Vehicles can be deported. , Traffic may be disrupted, particularly on secondary roads in forest areas. Limit your trips. , Limit your speed in highway driving, especially if you drive a vehicle or hitch sensitive to wind. , Do not go for walks in forests or along the coast., In town, be vigilant against possible falling objects., Do not work on roofs and do not touch any electrical line fallen on the ground., Store or secure sensitive objects to wind or likely to be damaged., Always install power generators outside buildings. 


Meteo18 Weather Cam more information Meteo18 Weather Cam


Thunder radar more information blitzortung!


Rain radar more information rain snow radar


Visit our other weather sites:

Template documentation
and downloads

And another site



Weather Underground History page Text

Daily Summary for March 22, 2016 Units:  Metric    English   Both
« Previous Day
Next Day »
Daily Weekly Monthly Yearly Custom
  High: Low: Average:
Temperature: 12.4 °C 2.5 °C 7.3 °C
Dew Point: 4.0 °C 0.7 °C 2.1 °C
Humidity: 88 % 52 % 70 %
Wind Speed: 16.1 km/h 0.0 km/h 3.9 km/h
Wind Gust: 27.4 km/h - -
Wind:- - East
Pressure: 1016.8 hPa 1009.7 hPa -
Precipitation: 0.0 mm    
Historical Graphs
 
 
Tabular Data for March 22, 2016
Time Temperature Dew Point Pressure Wind Wind Speed Wind Gust Humidity Rainfall Rate (Hourly)
00:02 4.9 °C 2.4 °C 1016.8 hPa ENE 1.6 km/h 3.2 km/h 84 % 0.0 mm
00:07 5.2 °C 2.7 °C 1016.8 hPa ENE 1.6 km/h 6.4 km/h 84 % 0.0 mm
00:12 5.2 °C 2.7 °C 1016.8 hPa Calm   6.4 km/h 84 % 0.0 mm
00:17 5.2 °C 2.7 °C 1016.5 hPa NE 1.6 km/h 6.4 km/h 84 % 0.0 mm
00:22 5.3 °C 2.8 °C 1016.5 hPa NNE 1.6 km/h 4.8 km/h 84 % 0.0 mm
00:27 5.3 °C 2.8 °C 1016.5 hPa Calm   4.8 km/h 84 % 0.0 mm
00:32 5.5 °C 3.0 °C 1016.5 hPa Calm   6.4 km/h 84 % 0.0 mm
00:37 5.4 °C 2.9 °C 1016.5 hPa NE 3.2 km/h 6.4 km/h 84 % 0.0 mm
00:42 5.3 °C 2.8 °C 1016.5 hPa Calm   6.4 km/h 84 % 0.0 mm
00:52 5.2 °C 2.7 °C 1016.5 hPa Calm   4.8 km/h 84 % 0.0 mm
00:57 5.1 °C 2.8 °C 1016.5 hPa NE 1.6 km/h 4.8 km/h 85 % 0.0 mm
01:02 5.2 °C 2.7 °C 1016.1 hPa NE 3.2 km/h 4.8 km/h 84 % 0.0 mm
01:07 5.1 °C 2.6 °C 1016.1 hPa NE 1.6 km/h 6.4 km/h 84 % 0.0 mm
01:17 5.1 °C 2.6 °C 1016.1 hPa Calm   6.4 km/h 84 % 0.0 mm
01:22 5.3 °C 2.6 °C 1016.1 hPa Calm   6.4 km/h 83 % 0.0 mm
01:32 5.3 °C 2.6 °C 1016.1 hPa NE 4.8 km/h 6.4 km/h 83 % 0.0 mm
01:37 5.3 °C 2.6 °C 1016.1 hPa NE 1.6 km/h 8.0 km/h 83 % 0.0 mm
01:42 5.3 °C 2.6 °C 1016.1 hPa Calm   8.0 km/h 83 % 0.0 mm
01:47 5.3 °C 2.6 °C 1016.1 hPa NNE 3.2 km/h 8.0 km/h 83 % 0.0 mm
01:52 5.3 °C 2.6 °C 1016.1 hPa NNE 1.6 km/h 9.7 km/h 83 % 0.0 mm
01:57 5.1 °C 2.5 °C 1016.1 hPa NNE 1.6 km/h 9.7 km/h 83 % 0.0 mm
02:02 5.1 °C 2.5 °C 1015.8 hPa Calm   9.7 km/h 83 % 0.0 mm
02:07 5.0 °C 2.4 °C 1015.8 hPa NE 6.4 km/h 9.7 km/h 83 % 0.0 mm
02:17 4.9 °C 2.3 °C 1015.8 hPa NNE 1.6 km/h 8.0 km/h 83 % 0.0 mm
02:22 4.8 °C 2.2 °C 1015.8 hPa Calm   6.4 km/h 83 % 0.0 mm
02:32 4.7 °C 1.9 °C 1015.5 hPa Calm   8.0 km/h 82 % 0.0 mm
02:37 4.5 °C 1.9 °C 1015.5 hPa Calm   8.0 km/h 83 % 0.0 mm
02:42 4.6 °C 2.0 °C 1015.5 hPa Calm   9.7 km/h 83 % 0.0 mm
02:47 4.5 °C 1.9 °C 1015.5 hPa Calm   9.7 km/h 83 % 0.0 mm
02:52 4.3 °C 1.7 °C 1015.5 hPa Calm   9.7 km/h 83 % 0.0 mm
02:57 4.3 °C 1.7 °C 1015.5 hPa NNE 1.6 km/h 6.4 km/h 83 % 0.0 mm
03:02 4.2 °C 1.6 °C 1015.5 hPa NE 1.6 km/h 6.4 km/h 83 % 0.0 mm
03:07 4.2 °C 1.6 °C 1015.1 hPa NNE 1.6 km/h 9.7 km/h 83 % 0.0 mm
03:12 4.0 °C 1.4 °C 1015.1 hPa Calm   9.7 km/h 83 % 0.0 mm
03:17 4.0 °C 1.4 °C 1015.1 hPa NE 3.2 km/h 9.7 km/h 83 % 0.0 mm
03:22 3.8 °C 1.3 °C 1015.1 hPa NNE 1.6 km/h 4.8 km/h 84 % 0.0 mm
03:27 3.7 °C 1.2 °C 1015.1 hPa ENE 1.6 km/h 4.8 km/h 84 % 0.0 mm
03:32 3.7 °C 1.2 °C 1015.1 hPa SE 1.6 km/h 4.8 km/h 84 % 0.0 mm
03:37 3.7 °C 1.2 °C 1015.1 hPa East 3.2 km/h 9.7 km/h 84 % 0.0 mm
03:42 3.6 °C 1.3 °C 1015.1 hPa East 1.6 km/h 9.7 km/h 85 % 0.0 mm
03:47 3.7 °C 1.2 °C 1014.8 hPa Calm   8.0 km/h 84 % 0.0 mm
03:52 3.9 °C 1.4 °C 1014.8 hPa Calm   9.7 km/h 84 % 0.0 mm
03:57 3.9 °C 1.4 °C 1014.8 hPa Calm   9.7 km/h 84 % 0.0 mm
04:02 3.9 °C 1.4 °C 1014.8 hPa ENE 1.6 km/h 9.7 km/h 84 % 0.0 mm
04:07 4.1 °C 1.6 °C 1014.8 hPa ENE 3.2 km/h 9.7 km/h 84 % 0.0 mm
04:12 3.9 °C 1.4 °C 1014.8 hPa NE 1.6 km/h 9.7 km/h 84 % 0.0 mm
04:17 3.9 °C 1.4 °C 1014.8 hPa NNE 3.2 km/h 8.0 km/h 84 % 0.0 mm
04:22 4.0 °C 1.5 °C 1014.8 hPa Calm   9.7 km/h 84 % 0.0 mm
04:27 4.1 °C 1.6 °C 1014.8 hPa SE 1.6 km/h 9.7 km/h 84 % 0.0 mm
04:32 4.3 °C 1.8 °C 1014.8 hPa NE 1.6 km/h 9.7 km/h 84 % 0.0 mm
04:37 4.2 °C 1.7 °C 1014.4 hPa NW 3.2 km/h 11.3 km/h 84 % 0.0 mm
04:42 4.1 °C 1.6 °C 1014.4 hPa ENE 4.8 km/h 9.7 km/h 84 % 0.0 mm
04:47 4.1 °C 1.6 °C 1014.4 hPa ENE 3.2 km/h 12.9 km/h 84 % 0.0 mm
04:52 4.1 °C 1.6 °C 1014.4 hPa NNE 4.8 km/h 12.9 km/h 84 % 0.0 mm
05:02 4.1 °C 1.6 °C 1014.4 hPa Calm   12.9 km/h 84 % 0.0 mm
05:12 3.9 °C 1.6 °C 1014.4 hPa NW 1.6 km/h 12.9 km/h 85 % 0.0 mm
05:17 3.8 °C 1.5 °C 1014.4 hPa ENE 1.6 km/h 11.3 km/h 85 % 0.0 mm
05:22 3.8 °C 1.5 °C 1014.4 hPa SE 1.6 km/h 11.3 km/h 85 % 0.0 mm
05:27 3.7 °C 1.4 °C 1014.4 hPa NE 3.2 km/h 11.3 km/h 85 % 0.0 mm
05:32 3.8 °C 1.5 °C 1014.4 hPa ESE 3.2 km/h 11.3 km/h 85 % 0.0 mm
05:37 3.8 °C 1.5 °C 1014.4 hPa NE 1.6 km/h 11.3 km/h 85 % 0.0 mm
05:42 3.5 °C 1.4 °C 1014.4 hPa Calm   11.3 km/h 86 % 0.0 mm
05:47 3.3 °C 1.2 °C 1014.4 hPa NE 1.6 km/h 9.7 km/h 86 % 0.0 mm
05:52 3.2 °C 1.2 °C 1014.4 hPa Calm   9.7 km/h 87 % 0.0 mm
05:57 3.1 °C 1.1 °C 1014.4 hPa Calm   6.4 km/h 87 % 0.0 mm
06:02 2.8 °C 0.9 °C 1014.4 hPa ENE 1.6 km/h 6.4 km/h 87 % 0.0 mm
06:07 2.7 °C 0.9 °C 1014.4 hPa East 3.2 km/h 8.0 km/h 88 % 0.0 mm
06:12 2.6 °C 0.7 °C 1014.4 hPa ENE 1.6 km/h 8.0 km/h 87 % 0.0 mm
06:17 2.5 °C 0.7 °C 1014.4 hPa NE 3.2 km/h 8.0 km/h 88 % 0.0 mm
06:22 2.7 °C 0.9 °C 1014.4 hPa Calm   8.0 km/h 88 % 0.0 mm
06:32 3.0 °C 1.0 °C 1014.4 hPa NE 3.2 km/h 9.7 km/h 87 % 0.0 mm
06:42 3.2 °C 1.1 °C 1014.4 hPa SE 3.2 km/h 9.7 km/h 86 % 0.0 mm
06:47 3.2 °C 1.1 °C 1014.4 hPa ESE 1.6 km/h 11.3 km/h 86 % 0.0 mm
06:52 3.2 °C 0.9 °C 1014.4 hPa East 1.6 km/h 11.3 km/h 85 % 0.0 mm
07:02 3.3 °C 1.0 °C 1014.4 hPa East 1.6 km/h 9.7 km/h 85 % 0.0 mm
07:07 3.4 °C 1.0 °C 1014.4 hPa ESE 3.2 km/h 11.3 km/h 84 % 0.0 mm
07:12 3.5 °C 1.1 °C 1014.4 hPa NE 3.2 km/h 11.3 km/h 84 % 0.0 mm
07:17 3.6 °C 1.0 °C 1014.4 hPa Calm   11.3 km/h 83 % 0.0 mm
07:22 3.6 °C 1.0 °C 1014.4 hPa NNE 3.2 km/h 11.3 km/h 83 % 0.0 mm
07:27 3.6 °C 1.0 °C 1014.4 hPa East 4.8 km/h 12.9 km/h 83 % 0.0 mm
07:32 3.7 °C 0.9 °C 1014.4 hPa ENE 1.6 km/h 12.9 km/h 82 % 0.0 mm
07:37 3.7 °C 1.1 °C 1014.4 hPa NNE 4.8 km/h 11.3 km/h 83 % 0.0 mm
07:42 3.7 °C 0.9 °C 1014.4 hPa NE 8.0 km/h 11.3 km/h 82 % 0.0 mm
07:47 3.8 °C 1.0 °C 1014.4 hPa ESE 4.8 km/h 12.9 km/h 82 % 0.0 mm
07:52 4.0 °C 1.0 °C 1014.4 hPa ENE 4.8 km/h 12.9 km/h 81 % 0.0 mm
07:57 4.1 °C 1.0 °C 1014.4 hPa NE 4.8 km/h 12.9 km/h 80 % 0.0 mm
08:02 4.3 °C 1.0 °C 1014.4 hPa NE 11.3 km/h 12.9 km/h 79 % 0.0 mm
08:07 4.3 °C 1.0 °C 1014.1 hPa NNE 6.4 km/h 14.5 km/h 79 % 0.0 mm
08:12 4.4 °C 1.1 °C 1014.1 hPa NNE 9.7 km/h 14.5 km/h 79 % 0.0 mm
08:17 4.5 °C 1.2 °C 1014.1 hPa NE 1.6 km/h 17.7 km/h 79 % 0.0 mm
08:22 4.6 °C 1.3 °C 1014.1 hPa SE 3.2 km/h 17.7 km/h 79 % 0.0 mm
08:32 4.8 °C 1.1 °C 1014.1 hPa NE 8.0 km/h 17.7 km/h 77 % 0.0 mm
08:37 5.0 °C 1.3 °C 1013.8 hPa NNE 3.2 km/h 17.7 km/h 77 % 0.0 mm
08:42 5.3 °C 1.2 °C 1014.1 hPa ENE 4.8 km/h 17.7 km/h 75 % 0.0 mm
08:47 5.6 °C 1.7 °C 1014.1 hPa NE 6.4 km/h 16.1 km/h 76 % 0.0 mm
08:52 5.8 °C 1.5 °C 1014.1 hPa NE 1.6 km/h 16.1 km/h 74 % 0.0 mm
08:57 6.2 °C 1.9 °C 1014.1 hPa ESE 1.6 km/h 12.9 km/h 74 % 0.0 mm
09:02 6.4 °C 1.9 °C 1014.1 hPa ENE 6.4 km/h 12.9 km/h 73 % 0.0 mm
09:12 6.8 °C 2.3 °C 1013.8 hPa NE 3.2 km/h 8.0 km/h 73 % 0.0 mm
09:17 6.9 °C 2.0 °C 1013.8 hPa NE 3.2 km/h 11.3 km/h 71 % 0.0 mm
09:22 7.2 °C 2.9 °C 1013.8 hPa NNE 3.2 km/h 11.3 km/h 74 % 0.0 mm
09:27 7.4 °C 2.9 °C 1013.8 hPa SE 1.6 km/h 19.3 km/h 73 % 0.0 mm
09:37 7.9 °C 3.0 °C 1013.8 hPa NE 4.8 km/h 14.5 km/h 71 % 0.0 mm
09:42 8.2 °C 3.3 °C 1013.8 hPa SE 1.6 km/h 14.5 km/h 71 % 0.0 mm
09:47 8.4 °C 3.0 °C 1013.8 hPa Calm   12.9 km/h 69 % 0.0 mm
09:52 8.7 °C 2.5 °C 1013.8 hPa NNW 6.4 km/h 12.9 km/h 65 % 0.0 mm
09:57 8.9 °C 2.7 °C 1013.8 hPa ENE 1.6 km/h 12.9 km/h 65 % 0.0 mm
10:02 9.5 °C 3.2 °C 1013.8 hPa WNW 4.8 km/h 12.9 km/h 65 % 0.0 mm
10:07 9.2 °C 2.3 °C 1013.8 hPa WNW 1.6 km/h 22.5 km/h 62 % 0.0 mm
10:17 9.4 °C 2.0 °C 1013.8 hPa NNE 8.0 km/h 22.5 km/h 60 % 0.0 mm
10:22 9.4 °C 2.3 °C 1013.8 hPa North 4.8 km/h 19.3 km/h 61 % 0.0 mm
10:27 9.6 °C 3.3 °C 1013.8 hPa North 8.0 km/h 14.5 km/h 65 % 0.0 mm
10:32 9.8 °C 2.4 °C 1013.8 hPa North 1.6 km/h 14.5 km/h 60 % 0.0 mm
10:37 10.1 °C 3.4 °C 1013.8 hPa ESE 1.6 km/h 14.5 km/h 63 % 0.0 mm
10:42 10.3 °C 3.1 °C 1013.4 hPa NNE 4.8 km/h 14.5 km/h 61 % 0.0 mm
10:47 10.5 °C 3.3 °C 1013.4 hPa NNE 1.6 km/h 14.5 km/h 61 % 0.0 mm
10:52 9.9 °C 2.5 °C 1013.4 hPa East 6.4 km/h 14.5 km/h 60 % 0.0 mm
10:57 9.2 °C 2.1 °C 1013.4 hPa ENE 12.9 km/h 16.1 km/h 61 % 0.0 mm
11:02 9.4 °C 2.5 °C 1013.4 hPa NNE 8.0 km/h 16.1 km/h 62 % 0.0 mm
11:07 9.8 °C 2.9 °C 1013.4 hPa NE 3.2 km/h 16.1 km/h 62 % 0.0 mm
11:12 9.8 °C 2.4 °C 1013.4 hPa ENE 6.4 km/h 16.1 km/h 60 % 0.0 mm
11:17 10.4 °C 3.0 °C 1013.4 hPa NNE 8.0 km/h 14.5 km/h 60 % 0.0 mm
11:22 10.7 °C 2.5 °C 1013.4 hPa NE 12.9 km/h 14.5 km/h 57 % 0.0 mm
11:32 10.3 °C 3.1 °C 1013.1 hPa NNE 4.8 km/h 19.3 km/h 61 % 0.0 mm
11:37 10.5 °C 2.8 °C 1013.1 hPa NNE 3.2 km/h 19.3 km/h 59 % 0.0 mm
11:42 10.7 °C 3.0 °C 1013.1 hPa North 3.2 km/h 27.4 km/h 59 % 0.0 mm
11:52 11.5 °C 4.0 °C 1013.1 hPa SSE 6.4 km/h 16.1 km/h 60 % 0.0 mm
12:02 10.6 °C 2.4 °C 1013.1 hPa NNE 4.8 km/h 17.7 km/h 57 % 0.0 mm
12:12 10.4 °C 3.0 °C 1013.1 hPa NNE 4.8 km/h 22.5 km/h 60 % 0.0 mm
12:17 10.8 °C 2.6 °C 1013.1 hPa NE 8.0 km/h 22.5 km/h 57 % 0.0 mm
12:22 11.2 °C 3.7 °C 1012.8 hPa NNE 4.8 km/h 25.7 km/h 60 % 0.0 mm
12:27 11.4 °C 3.9 °C 1012.8 hPa ENE 8.0 km/h 25.7 km/h 60 % 0.0 mm
12:32 11.7 °C 3.7 °C 1012.8 hPa NE 4.8 km/h 25.7 km/h 58 % 0.0 mm
12:37 11.6 °C 2.3 °C 1012.8 hPa NNE 3.2 km/h 25.7 km/h 53 % 0.0 mm
12:42 11.5 °C 3.0 °C 1012.8 hPa North 14.5 km/h 20.9 km/h 56 % 0.0 mm
12:47 10.7 °C 2.0 °C 1012.8 hPa SE 3.2 km/h 27.4 km/h 55 % 0.0 mm
12:57 11.3 °C 3.3 °C 1012.8 hPa NE 6.4 km/h 27.4 km/h 58 % 0.0 mm
13:02 11.2 °C 2.5 °C 1012.4 hPa NE 3.2 km/h 27.4 km/h 55 % 0.0 mm
13:07 11.0 °C 3.3 °C 1012.4 hPa North 12.9 km/h 22.5 km/h 59 % 0.0 mm
13:12 10.9 °C 2.7 °C 1012.4 hPa East 4.8 km/h 22.5 km/h 57 % 0.0 mm
13:17 11.1 °C 3.6 °C 1012.4 hPa ENE 4.8 km/h 16.1 km/h 60 % 0.0 mm
13:22 10.8 °C 3.1 °C 1012.4 hPa ENE 8.0 km/h 16.1 km/h 59 % 0.0 mm
13:32 10.6 °C 2.7 °C 1012.4 hPa East 3.2 km/h 27.4 km/h 58 % 0.0 mm
13:37 11.1 °C 3.1 °C 1012.4 hPa NE 8.0 km/h 25.7 km/h 58 % 0.0 mm
13:42 10.9 °C 2.5 °C 1012.1 hPa North 6.4 km/h 17.7 km/h 56 % 0.0 mm
13:47 10.8 °C 2.1 °C 1012.1 hPa SE 6.4 km/h 20.9 km/h 55 % 0.0 mm
13:52 10.7 °C 2.5 °C 1012.1 hPa North 14.5 km/h 20.9 km/h 57 % 0.0 mm
13:57 10.9 °C 3.4 °C 1011.7 hPa SE 6.4 km/h 22.5 km/h 60 % 0.0 mm
14:02 11.3 °C 3.8 °C 1011.7 hPa ENE 9.7 km/h 22.5 km/h 60 % 0.0 mm
14:07 10.9 °C 3.0 °C 1011.7 hPa East 11.3 km/h 22.5 km/h 58 % 0.0 mm
14:12 10.6 °C 3.2 °C 1011.7 hPa North 8.0 km/h 22.5 km/h 60 % 0.0 mm
14:17 10.7 °C 3.5 °C 1011.4 hPa NE 6.4 km/h 25.7 km/h 61 % 0.0 mm
14:22 11.2 °C 3.7 °C 1011.4 hPa North 4.8 km/h 24.1 km/h 60 % 0.0 mm
14:27 11.5 °C 3.5 °C 1011.4 hPa ESE 8.0 km/h 19.3 km/h 58 % 0.0 mm
14:32 11.6 °C 3.4 °C 1011.4 hPa NNE 4.8 km/h 19.3 km/h 57 % 0.0 mm
14:42 11.6 °C 3.1 °C 1011.1 hPa NNE 8.0 km/h 16.1 km/h 56 % 0.0 mm
14:47 11.7 °C 2.7 °C 1011.1 hPa ENE 4.8 km/h 17.7 km/h 54 % 0.0 mm
14:52 12.0 °C 4.0 °C 1011.1 hPa NE 12.9 km/h 17.7 km/h 58 % 0.0 mm
15:02 12.0 °C 3.5 °C 1010.7 hPa NNE 6.4 km/h 19.3 km/h 56 % 0.0 mm
15:07 12.1 °C 3.6 °C 1010.7 hPa NNW 3.2 km/h 20.9 km/h 56 % 0.0 mm
15:12 12.2 °C 2.9 °C 1010.7 hPa Calm   20.9 km/h 53 % 0.0 mm
15:17 12.3 °C 3.8 °C 1010.4 hPa NE 9.7 km/h 20.9 km/h 56 % 0.0 mm
15:22 12.3 °C 3.0 °C 1010.4 hPa NNW 1.6 km/h 20.9 km/h 53 % 0.0 mm
15:27 12.4 °C 3.1 °C 1010.4 hPa East 6.4 km/h 17.7 km/h 53 % 0.0 mm
15:32 12.3 °C 3.8 °C 1010.4 hPa SE 3.2 km/h 17.7 km/h 56 % 0.0 mm
15:37 12.2 °C 3.4 °C 1010.4 hPa ENE 6.4 km/h 22.5 km/h 55 % 0.0 mm
15:42 12.1 °C 2.8 °C 1010.4 hPa NNE 8.0 km/h 22.5 km/h 53 % 0.0 mm
15:47 12.2 °C 3.9 °C 1010.4 hPa NE 14.5 km/h 22.5 km/h 57 % 0.0 mm
15:52 12.2 °C 2.9 °C 1010.0 hPa NE 6.4 km/h 22.5 km/h 53 % 0.0 mm
15:57 12.0 °C 2.7 °C 1010.4 hPa NNE 3.2 km/h 22.5 km/h 53 % 0.0 mm
16:02 12.1 °C 3.6 °C 1010.0 hPa East 8.0 km/h 22.5 km/h 56 % 0.0 mm
16:07 12.1 °C 3.6 °C 1010.0 hPa ENE 1.6 km/h 16.1 km/h 56 % 0.0 mm
16:12 12.1 °C 2.5 °C 1010.0 hPa NNE 6.4 km/h 16.1 km/h 52 % 0.0 mm
16:17 12.0 °C 3.2 °C 1010.0 hPa NE 16.1 km/h 20.9 km/h 55 % 0.0 mm
16:22 12.0 °C 3.2 °C 1010.0 hPa NE 6.4 km/h 20.9 km/h 55 % 0.0 mm
16:32 11.8 °C 2.8 °C 1010.0 hPa NNE 6.4 km/h 25.7 km/h 54 % 0.0 mm
16:42 11.8 °C 3.0 °C 1009.7 hPa NW 3.2 km/h 25.7 km/h 55 % 0.0 mm
16:47 11.8 °C 3.3 °C 1009.7 hPa ENE 6.4 km/h 19.3 km/h 56 % 0.0 mm
16:52 11.7 °C 3.0 °C 1009.7 hPa NE 4.8 km/h 25.7 km/h 55 % 0.0 mm
16:57 11.6 °C 3.9 °C 1009.7 hPa ENE 4.8 km/h 25.7 km/h 59 % 0.0 mm
17:02 11.6 °C 2.3 °C 1009.7 hPa SSE 8.0 km/h 25.7 km/h 53 % 0.0 mm
17:07 11.4 °C 2.2 °C 1009.7 hPa ENE 11.3 km/h 19.3 km/h 53 % 0.0 mm
17:12 11.4 °C 2.7 °C 1009.7 hPa NNE 6.4 km/h 19.3 km/h 55 % 0.0 mm
17:17 11.3 °C 2.6 °C 1009.7 hPa NNE 12.9 km/h 22.5 km/h 55 % 0.0 mm
17:22 11.3 °C 2.8 °C 1009.7 hPa NE 9.7 km/h 22.5 km/h 56 % 0.0 mm
17:27 11.1 °C 2.7 °C 1009.7 hPa East 3.2 km/h 22.5 km/h 56 % 0.0 mm
17:32 11.0 °C 2.3 °C 1009.7 hPa East 4.8 km/h 22.5 km/h 55 % 0.0 mm
17:37 10.9 °C 2.2 °C 1009.7 hPa NE 4.8 km/h 27.4 km/h 55 % 0.0 mm
17:52 10.6 °C 2.2 °C 1009.7 hPa ENE 6.4 km/h 22.5 km/h 56 % 0.0 mm
17:57 10.4 °C 2.2 °C 1009.7 hPa NNE 11.3 km/h 22.5 km/h 57 % 0.0 mm
18:02 10.3 °C 2.2 °C 1009.7 hPa ENE 8.0 km/h 22.5 km/h 57 % 0.0 mm
18:07 10.1 °C 2.2 °C 1009.7 hPa North 3.2 km/h 24.1 km/h 58 % 0.0 mm
18:12 10.1 °C 2.2 °C 1009.7 hPa ENE 3.2 km/h 24.1 km/h 58 % 0.0 mm
18:17 9.9 °C 2.0 °C 1009.7 hPa ENE 4.8 km/h 24.1 km/h 58 % 0.0 mm
18:22 9.8 °C 2.2 °C 1009.7 hPa North 6.4 km/h 20.9 km/h 59 % 0.0 mm
18:27 9.7 °C 2.1 °C 1010.0 hPa NE 8.0 km/h 20.9 km/h 59 % 0.0 mm
18:32 9.7 °C 2.1 °C 1009.7 hPa SE 4.8 km/h 22.5 km/h 59 % 0.0 mm
18:37 9.5 °C 2.1 °C 1010.0 hPa ENE 6.4 km/h 22.5 km/h 60 % 0.0 mm
18:42 9.5 °C 1.6 °C 1010.0 hPa NE 3.2 km/h 22.5 km/h 58 % 0.0 mm
18:47 9.3 °C 1.7 °C 1010.0 hPa NE 4.8 km/h 12.9 km/h 59 % 0.0 mm
18:52 9.2 °C 1.8 °C 1010.0 hPa SE 1.6 km/h 12.9 km/h 60 % 0.0 mm
18:57 8.9 °C 1.8 °C 1009.7 hPa ENE 6.4 km/h 14.5 km/h 61 % 0.0 mm
19:02 9.1 °C 1.5 °C 1010.0 hPa East 3.2 km/h 14.5 km/h 59 % 0.0 mm
19:07 8.9 °C 1.6 °C 1010.0 hPa ENE 4.8 km/h 16.1 km/h 60 % 0.0 mm
19:12 9.0 °C 1.4 °C 1010.0 hPa ENE 1.6 km/h 16.1 km/h 59 % 0.0 mm
19:17 8.7 °C 1.6 °C 1010.0 hPa East 3.2 km/h 12.9 km/h 61 % 0.0 mm
19:22 8.3 °C 1.7 °C 1010.0 hPa NE 1.6 km/h 12.9 km/h 63 % 0.0 mm
19:27 7.9 °C 1.7 °C 1010.0 hPa NNE 3.2 km/h 9.7 km/h 65 % 0.0 mm
19:32 7.8 °C 1.6 °C 1010.0 hPa NE 3.2 km/h 9.7 km/h 65 % 0.0 mm
19:37 7.7 °C 1.3 °C 1010.0 hPa North 6.4 km/h 9.7 km/h 64 % 0.0 mm
19:42 7.8 °C 1.4 °C 1010.0 hPa East 1.6 km/h 9.7 km/h 64 % 0.0 mm
19:47 7.8 °C 1.4 °C 1010.0 hPa ESE 1.6 km/h 11.3 km/h 64 % 0.0 mm
19:57 7.7 °C 1.3 °C 1010.0 hPa ENE 1.6 km/h 11.3 km/h 64 % 0.0 mm
20:02 7.6 °C 1.2 °C 1010.0 hPa Calm   11.3 km/h 64 % 0.0 mm
20:12 7.3 °C 1.2 °C 1010.0 hPa ENE 1.6 km/h 11.3 km/h 65 % 0.0 mm
20:17 7.2 °C 1.3 °C 1010.0 hPa NE 3.2 km/h 11.3 km/h 66 % 0.0 mm
20:22 7.1 °C 1.2 °C 1010.0 hPa NE 3.2 km/h 11.3 km/h 66 % 0.0 mm
20:27 6.9 °C 1.2 °C 1010.0 hPa NNE 3.2 km/h 8.0 km/h 67 % 0.0 mm
20:32 6.8 °C 1.3 °C 1010.0 hPa ENE 6.4 km/h 8.0 km/h 68 % 0.0 mm
20:37 7.0 °C 1.3 °C 1010.0 hPa ENE 4.8 km/h 11.3 km/h 67 % 0.0 mm
20:42 7.1 °C 1.6 °C 1010.0 hPa South 3.2 km/h 11.3 km/h 68 % 0.0 mm
20:47 7.1 °C 1.4 °C 1010.0 hPa ENE 4.8 km/h 12.9 km/h 67 % 0.0 mm
20:57 7.1 °C 1.6 °C 1010.0 hPa ENE 3.2 km/h 12.9 km/h 68 % 0.0 mm
21:02 7.1 °C 1.6 °C 1010.0 hPa ENE 3.2 km/h 12.9 km/h 68 % 0.0 mm
21:07 7.1 °C 1.6 °C 1010.0 hPa ESE 1.6 km/h 14.5 km/h 68 % 0.0 mm
21:12 6.9 °C 1.4 °C 1010.0 hPa East 1.6 km/h 14.5 km/h 68 % 0.0 mm
21:17 7.0 °C 1.5 °C 1010.0 hPa East 4.8 km/h 12.9 km/h 68 % 0.0 mm
21:22 6.8 °C 1.5 °C 1010.0 hPa ENE 1.6 km/h 12.9 km/h 69 % 0.0 mm
21:32 6.6 °C 1.5 °C 1010.0 hPa NE 3.2 km/h 12.9 km/h 70 % 0.0 mm
21:37 6.4 °C 1.5 °C 1010.0 hPa ESE 4.8 km/h 9.7 km/h 71 % 0.0 mm
21:47 6.5 °C 1.6 °C 1010.0 hPa NE 4.8 km/h 11.3 km/h 71 % 0.0 mm
21:52 6.4 °C 1.5 °C 1010.0 hPa Calm   11.3 km/h 71 % 0.0 mm
21:57 6.2 °C 1.3 °C 1010.0 hPa NE 3.2 km/h 11.3 km/h 71 % 0.0 mm
22:02 6.3 °C 1.4 °C 1010.0 hPa SE 3.2 km/h 11.3 km/h 71 % 0.0 mm
22:07 6.2 °C 1.3 °C 1010.0 hPa NE 3.2 km/h 11.3 km/h 71 % 0.0 mm
22:12 6.2 °C 1.5 °C 1010.0 hPa Calm   11.3 km/h 72 % 0.0 mm
22:17 5.9 °C 1.2 °C 1010.0 hPa NE 4.8 km/h 9.7 km/h 72 % 0.0 mm
22:22 5.9 °C 1.4 °C 1010.0 hPa Calm   9.7 km/h 73 % 0.0 mm
22:27 5.7 °C 1.2 °C 1010.0 hPa Calm   8.0 km/h 73 % 0.0 mm
22:32 5.7 °C 1.4 °C 1010.0 hPa ESE 3.2 km/h 8.0 km/h 74 % 0.0 mm
22:37 5.7 °C 1.4 °C 1010.0 hPa Calm   11.3 km/h 74 % 0.0 mm
22:42 5.7 °C 1.4 °C 1010.0 hPa Calm   11.3 km/h 74 % 0.0 mm
22:47 5.3 °C 1.2 °C 1010.0 hPa NNE 4.8 km/h 6.4 km/h 75 % 0.0 mm
22:52 5.4 °C 1.3 °C 1010.0 hPa NE 1.6 km/h 6.4 km/h 75 % 0.0 mm
22:57 5.3 °C 1.2 °C 1010.0 hPa Calm   9.7 km/h 75 % 0.0 mm
23:02 5.3 °C 1.2 °C 1010.0 hPa Calm   9.7 km/h 75 % 0.0 mm
23:07 5.3 °C 1.2 °C 1010.0 hPa NE 3.2 km/h 8.0 km/h 75 % 0.0 mm
23:12 5.2 °C 1.3 °C 1010.0 hPa ENE 6.4 km/h 8.0 km/h 76 % 0.0 mm
23:17 5.3 °C 1.4 °C 1010.0 hPa NE 3.2 km/h 8.0 km/h 76 % 0.0 mm
23:22 5.3 °C 1.2 °C 1010.0 hPa East 1.6 km/h 8.0 km/h 75 % 0.0 mm
23:27 5.3 °C 1.2 °C 1010.0 hPa NNE 4.8 km/h 6.4 km/h 75 % 0.0 mm
23:32 5.3 °C 1.2 °C 1010.0 hPa NE 6.4 km/h 6.4 km/h 75 % 0.0 mm
23:37 5.5 °C 1.4 °C 1010.0 hPa East 1.6 km/h 9.7 km/h 75 % 0.0 mm
23:42 5.4 °C 1.3 °C 1010.0 hPa NE 1.6 km/h 9.7 km/h 75 % 0.0 mm
23:47 5.3 °C 1.2 °C 1010.0 hPa ENE 1.6 km/h 9.7 km/h 75 % 0.0 mm
23:52 5.4 °C 1.3 °C 1010.0 hPa NE 4.8 km/h 9.7 km/h 75 % 0.0 mm
23:57 5.4 °C 1.3 °C 1010.0 hPa NE 1.6 km/h 11.3 km/h 75 % 0.0 mm
Meteo18
Compliments of Weather Underground - 4 mb

Script developed by  Jim McMurry - jmcmurry@mwt.net Adapted for the template by  Wim van der Kuil - Leuven-Template.eu

You find our weather info also at:

European Weather Network

Weather Underground

Equipment we use:

Weather-station
Davis Vue

Weather-program
Meteohub

Weather-server
Raspberry PI 2 B+

Provider
1 and 1

Davis Vue

Meteohub

Raspberry PI 2 B+

1 and 1